sensor_id;sensor_type;location;lat;lon;timestamp;P1;durP1;ratioP1;P2;durP2;ratioP2
54787;SDS011;59598;48.112;16.280;2022-08-14T00:01:43;5.20;;;3.55;;
54787;SDS011;59598;48.112;16.280;2022-08-14T00:04:19;5.30;;;3.15;;
54787;SDS011;59598;48.112;16.280;2022-08-14T00:06:53;4.93;;;3.10;;
54787;SDS011;59598;48.112;16.280;2022-08-14T00:09:24;4.45;;;3.00;;
54787;SDS011;59598;48.112;16.280;2022-08-14T00:11:58;5.00;;;3.50;;
54787;SDS011;59598;48.112;16.280;2022-08-14T00:14:35;6.20;;;3.65;;
54787;SDS011;59598;48.112;16.280;2022-08-14T00:17:07;5.55;;;3.03;;
54787;SDS011;59598;48.112;16.280;2022-08-14T00:19:40;6.22;;;4.30;;
54787;SDS011;59598;48.112;16.280;2022-08-14T00:22:11;4.07;;;2.97;;
54787;SDS011;59598;48.112;16.280;2022-08-14T00:24:48;4.43;;;2.90;;
54787;SDS011;59598;48.112;16.280;2022-08-14T00:27:24;5.88;;;3.47;;
54787;SDS011;59598;48.112;16.280;2022-08-14T00:30:04;7.47;;;3.55;;
54787;SDS011;59598;48.112;16.280;2022-08-14T00:32:36;4.88;;;3.60;;
54787;SDS011;59598;48.112;16.280;2022-08-14T00:35:08;5.13;;;3.50;;
54787;SDS011;59598;48.112;16.280;2022-08-14T00:37:46;4.32;;;3.10;;
54787;SDS011;59598;48.112;16.280;2022-08-14T00:40:18;4.03;;;3.40;;
54787;SDS011;59598;48.112;16.280;2022-08-14T00:42:56;5.50;;;3.40;;
54787;SDS011;59598;48.112;16.280;2022-08-14T00:45:27;4.80;;;3.33;;
54787;SDS011;59598;48.112;16.280;2022-08-14T00:48:01;6.20;;;3.33;;
54787;SDS011;59598;48.112;16.280;2022-08-14T00:50:36;5.20;;;3.60;;
54787;SDS011;59598;48.112;16.280;2022-08-14T00:53:08;4.90;;;3.05;;
54787;SDS011;59598;48.112;16.280;2022-08-14T00:55:42;4.18;;;2.85;;
54787;SDS011;59598;48.112;16.280;2022-08-14T00:58:16;7.07;;;3.40;;
54787;SDS011;59598;48.112;16.280;2022-08-14T01:01:07;4.45;;;3.40;;
54787;SDS011;59598;48.112;16.280;2022-08-14T01:03:44;4.45;;;3.25;;
54787;SDS011;59598;48.112;16.280;2022-08-14T01:06:20;4.93;;;3.38;;
54787;SDS011;59598;48.112;16.280;2022-08-14T01:08:56;4.05;;;2.88;;
54787;SDS011;59598;48.112;16.280;2022-08-14T01:11:31;4.03;;;2.95;;
54787;SDS011;59598;48.112;16.280;2022-08-14T01:14:11;4.72;;;3.22;;
54787;SDS011;59598;48.112;16.280;2022-08-14T01:16:46;6.13;;;3.17;;
54787;SDS011;59598;48.112;16.280;2022-08-14T01:19:18;4.95;;;2.92;;
54787;SDS011;59598;48.112;16.280;2022-08-14T01:22:09;4.55;;;3.10;;
54787;SDS011;59598;48.112;16.280;2022-08-14T01:24:41;5.20;;;3.03;;
54787;SDS011;59598;48.112;16.280;2022-08-14T01:27:18;4.35;;;2.83;;
54787;SDS011;59598;48.112;16.280;2022-08-14T01:29:53;4.57;;;3.58;;
54787;SDS011;59598;48.112;16.280;2022-08-14T01:32:25;4.35;;;3.13;;
54787;SDS011;59598;48.112;16.280;2022-08-14T01:34:59;4.70;;;3.08;;
54787;SDS011;59598;48.112;16.280;2022-08-14T01:37:30;5.57;;;3.30;;
54787;SDS011;59598;48.112;16.280;2022-08-14T01:40:04;4.65;;;3.33;;
54787;SDS011;59598;48.112;16.280;2022-08-14T01:42:38;7.03;;;3.50;;
54787;SDS011;59598;48.112;16.280;2022-08-14T01:45:12;4.38;;;3.25;;
54787;SDS011;59598;48.112;16.280;2022-08-14T01:47:43;4.22;;;3.20;;
54787;SDS011;59598;48.112;16.280;2022-08-14T01:50:29;4.88;;;2.75;;
54787;SDS011;59598;48.112;16.280;2022-08-14T01:53:06;4.43;;;3.10;;
54787;SDS011;59598;48.112;16.280;2022-08-14T01:55:40;4.32;;;3.13;;
54787;SDS011;59598;48.112;16.280;2022-08-14T01:58:20;4.18;;;2.85;;
54787;SDS011;59598;48.112;16.280;2022-08-14T02:00:57;7.70;;;3.78;;
54787;SDS011;59598;48.112;16.280;2022-08-14T02:03:38;4.43;;;3.17;;
54787;SDS011;59598;48.112;16.280;2022-08-14T02:06:12;5.80;;;3.58;;
54787;SDS011;59598;48.112;16.280;2022-08-14T02:08:44;4.88;;;3.40;;
54787;SDS011;59598;48.112;16.280;2022-08-14T02:11:17;3.30;;;2.87;;
54787;SDS011;59598;48.112;16.280;2022-08-14T02:13:59;5.03;;;3.65;;
54787;SDS011;59598;48.112;16.280;2022-08-14T02:16:39;5.30;;;3.53;;
54787;SDS011;59598;48.112;16.280;2022-08-14T02:19:23;3.90;;;2.92;;
54787;SDS011;59598;48.112;16.280;2022-08-14T02:22:01;4.20;;;3.25;;
54787;SDS011;59598;48.112;16.280;2022-08-14T02:24:40;5.43;;;2.97;;
54787;SDS011;59598;48.112;16.280;2022-08-14T02:27:13;4.43;;;3.30;;
54787;SDS011;59598;48.112;16.280;2022-08-14T02:29:50;3.80;;;2.88;;
54787;SDS011;59598;48.112;16.280;2022-08-14T02:32:26;4.43;;;3.10;;
54787;SDS011;59598;48.112;16.280;2022-08-14T02:37:33;4.80;;;3.85;;
54787;SDS011;59598;48.112;16.280;2022-08-14T02:40:04;6.07;;;3.58;;
54787;SDS011;59598;48.112;16.280;2022-08-14T02:42:39;3.45;;;3.00;;
54787;SDS011;59598;48.112;16.280;2022-08-14T02:45:12;4.78;;;3.22;;
54787;SDS011;59598;48.112;16.280;2022-08-14T02:47:45;5.80;;;3.83;;
54787;SDS011;59598;48.112;16.280;2022-08-14T02:50:19;4.53;;;3.25;;
54787;SDS011;59598;48.112;16.280;2022-08-14T02:52:53;4.35;;;3.30;;
54787;SDS011;59598;48.112;16.280;2022-08-14T02:55:26;5.05;;;3.35;;
54787;SDS011;59598;48.112;16.280;2022-08-14T02:58:00;5.18;;;3.60;;
54787;SDS011;59598;48.112;16.280;2022-08-14T03:00:37;4.60;;;3.17;;
54787;SDS011;59598;48.112;16.280;2022-08-14T03:03:11;6.95;;;3.83;;
54787;SDS011;59598;48.112;16.280;2022-08-14T03:05:44;3.67;;;3.15;;
54787;SDS011;59598;48.112;16.280;2022-08-14T03:08:20;4.28;;;3.42;;
54787;SDS011;59598;48.112;16.280;2022-08-14T03:10:57;4.68;;;3.33;;
54787;SDS011;59598;48.112;16.280;2022-08-14T03:13:37;5.15;;;3.30;;
54787;SDS011;59598;48.112;16.280;2022-08-14T03:16:13;5.85;;;3.80;;
54787;SDS011;59598;48.112;16.280;2022-08-14T03:18:50;5.50;;;3.95;;
54787;SDS011;59598;48.112;16.280;2022-08-14T03:21:23;5.10;;;3.22;;
54787;SDS011;59598;48.112;16.280;2022-08-14T03:24:01;5.50;;;3.47;;
54787;SDS011;59598;48.112;16.280;2022-08-14T03:26:45;6.95;;;3.92;;
54787;SDS011;59598;48.112;16.280;2022-08-14T03:29:19;5.82;;;3.72;;
54787;SDS011;59598;48.112;16.280;2022-08-14T03:31:50;5.95;;;3.53;;
54787;SDS011;59598;48.112;16.280;2022-08-14T03:34:24;5.05;;;2.95;;
54787;SDS011;59598;48.112;16.280;2022-08-14T03:36:58;3.75;;;2.92;;
54787;SDS011;59598;48.112;16.280;2022-08-14T03:39:30;3.72;;;3.28;;
54787;SDS011;59598;48.112;16.280;2022-08-14T03:42:03;5.40;;;3.65;;
54787;SDS011;59598;48.112;16.280;2022-08-14T03:44:37;3.65;;;2.95;;
54787;SDS011;59598;48.112;16.280;2022-08-14T03:47:13;4.18;;;3.40;;
54787;SDS011;59598;48.112;16.280;2022-08-14T03:49:45;4.28;;;2.90;;
54787;SDS011;59598;48.112;16.280;2022-08-14T03:52:19;4.90;;;3.50;;
54787;SDS011;59598;48.112;16.280;2022-08-14T03:54:50;4.13;;;2.90;;
54787;SDS011;59598;48.112;16.280;2022-08-14T03:57:22;5.30;;;2.75;;
54787;SDS011;59598;48.112;16.280;2022-08-14T04:00:10;6.72;;;3.38;;
54787;SDS011;59598;48.112;16.280;2022-08-14T04:02:42;4.10;;;3.15;;
54787;SDS011;59598;48.112;16.280;2022-08-14T04:05:14;5.68;;;3.65;;
54787;SDS011;59598;48.112;16.280;2022-08-14T04:07:50;4.63;;;3.33;;
54787;SDS011;59598;48.112;16.280;2022-08-14T04:10:24;6.22;;;3.38;;
54787;SDS011;59598;48.112;16.280;2022-08-14T04:12:57;4.85;;;3.60;;
54787;SDS011;59598;48.112;16.280;2022-08-14T04:15:33;4.97;;;3.58;;
54787;SDS011;59598;48.112;16.280;2022-08-14T04:18:12;5.07;;;3.90;;
54787;SDS011;59598;48.112;16.280;2022-08-14T04:20:44;4.80;;;3.10;;
54787;SDS011;59598;48.112;16.280;2022-08-14T04:23:15;3.92;;;2.80;;
54787;SDS011;59598;48.112;16.280;2022-08-14T04:25:49;3.80;;;3.40;;
54787;SDS011;59598;48.112;16.280;2022-08-14T04:28:26;4.07;;;3.22;;
54787;SDS011;59598;48.112;16.280;2022-08-14T04:30:58;5.60;;;4.13;;
54787;SDS011;59598;48.112;16.280;2022-08-14T04:33:32;6.50;;;3.92;;
54787;SDS011;59598;48.112;16.280;2022-08-14T04:36:07;4.43;;;3.55;;
54787;SDS011;59598;48.112;16.280;2022-08-14T04:38:41;5.20;;;3.50;;
54787;SDS011;59598;48.112;16.280;2022-08-14T04:41:30;4.00;;;3.00;;
54787;SDS011;59598;48.112;16.280;2022-08-14T04:44:20;4.35;;;3.60;;
54787;SDS011;59598;48.112;16.280;2022-08-14T04:46:55;4.72;;;3.78;;
54787;SDS011;59598;48.112;16.280;2022-08-14T04:49:47;5.63;;;3.60;;
54787;SDS011;59598;48.112;16.280;2022-08-14T04:52:20;6.28;;;3.53;;
54787;SDS011;59598;48.112;16.280;2022-08-14T04:54:51;5.38;;;3.90;;
54787;SDS011;59598;48.112;16.280;2022-08-14T04:57:27;3.90;;;3.17;;
54787;SDS011;59598;48.112;16.280;2022-08-14T05:00:00;5.40;;;3.28;;
54787;SDS011;59598;48.112;16.280;2022-08-14T05:02:34;5.95;;;3.15;;
54787;SDS011;59598;48.112;16.280;2022-08-14T05:05:06;4.43;;;3.47;;
54787;SDS011;59598;48.112;16.280;2022-08-14T05:07:38;4.32;;;3.45;;
54787;SDS011;59598;48.112;16.280;2022-08-14T05:10:14;5.43;;;3.40;;
54787;SDS011;59598;48.112;16.280;2022-08-14T05:12:45;4.53;;;3.33;;
54787;SDS011;59598;48.112;16.280;2022-08-14T05:15:18;4.95;;;3.33;;
54787;SDS011;59598;48.112;16.280;2022-08-14T05:17:52;3.58;;;3.25;;
54787;SDS011;59598;48.112;16.280;2022-08-14T05:20:23;3.20;;;2.67;;
54787;SDS011;59598;48.112;16.280;2022-08-14T05:22:57;6.90;;;5.32;;
54787;SDS011;59598;48.112;16.280;2022-08-14T05:25:31;5.07;;;3.83;;
54787;SDS011;59598;48.112;16.280;2022-08-14T05:28:15;5.00;;;3.63;;
54787;SDS011;59598;48.112;16.280;2022-08-14T05:30:56;6.65;;;4.18;;
54787;SDS011;59598;48.112;16.280;2022-08-14T05:33:32;4.93;;;2.85;;
54787;SDS011;59598;48.112;16.280;2022-08-14T05:36:05;6.63;;;4.68;;
54787;SDS011;59598;48.112;16.280;2022-08-14T05:38:41;6.15;;;4.15;;
54787;SDS011;59598;48.112;16.280;2022-08-14T05:41:19;5.38;;;3.78;;
54787;SDS011;59598;48.112;16.280;2022-08-14T05:46:24;4.82;;;3.83;;
54787;SDS011;59598;48.112;16.280;2022-08-14T05:48:56;5.35;;;3.72;;
54787;SDS011;59598;48.112;16.280;2022-08-14T05:51:29;4.55;;;3.55;;
54787;SDS011;59598;48.112;16.280;2022-08-14T05:54:03;5.63;;;3.87;;
54787;SDS011;59598;48.112;16.280;2022-08-14T05:56:34;4.68;;;3.22;;
54787;SDS011;59598;48.112;16.280;2022-08-14T05:59:11;5.50;;;3.75;;
54787;SDS011;59598;48.112;16.280;2022-08-14T06:01:43;4.70;;;3.92;;
54787;SDS011;59598;48.112;16.280;2022-08-14T06:04:14;4.50;;;3.83;;
54787;SDS011;59598;48.112;16.280;2022-08-14T06:06:47;4.45;;;3.70;;
54787;SDS011;59598;48.112;16.280;2022-08-14T06:09:19;6.97;;;4.03;;
54787;SDS011;59598;48.112;16.280;2022-08-14T06:11:50;4.65;;;4.10;;
54787;SDS011;59598;48.112;16.280;2022-08-14T06:14:21;5.40;;;4.25;;
54787;SDS011;59598;48.112;16.280;2022-08-14T06:16:56;8.02;;;5.53;;
54787;SDS011;59598;48.112;16.280;2022-08-14T06:19:29;4.90;;;4.00;;
54787;SDS011;59598;48.112;16.280;2022-08-14T06:22:06;6.88;;;3.72;;
54787;SDS011;59598;48.112;16.280;2022-08-14T06:24:37;5.15;;;3.30;;
54787;SDS011;59598;48.112;16.280;2022-08-14T06:27:08;5.80;;;3.58;;
54787;SDS011;59598;48.112;16.280;2022-08-14T06:29:40;4.68;;;3.65;;
54787;SDS011;59598;48.112;16.280;2022-08-14T06:34:45;5.38;;;3.78;;
54787;SDS011;59598;48.112;16.280;2022-08-14T06:37:17;4.43;;;3.58;;
54787;SDS011;59598;48.112;16.280;2022-08-14T06:39:51;5.22;;;4.43;;
54787;SDS011;59598;48.112;16.280;2022-08-14T06:42:24;4.88;;;4.22;;
54787;SDS011;59598;48.112;16.280;2022-08-14T06:44:59;10.32;;;4.25;;
54787;SDS011;59598;48.112;16.280;2022-08-14T06:47:36;7.13;;;4.07;;
54787;SDS011;59598;48.112;16.280;2022-08-14T06:50:13;4.88;;;3.95;;
54787;SDS011;59598;48.112;16.280;2022-08-14T06:52:48;7.68;;;4.30;;
54787;SDS011;59598;48.112;16.280;2022-08-14T06:55:22;6.93;;;4.40;;
54787;SDS011;59598;48.112;16.280;2022-08-14T06:57:55;6.15;;;4.40;;
54787;SDS011;59598;48.112;16.280;2022-08-14T07:00:27;6.85;;;4.72;;
54787;SDS011;59598;48.112;16.280;2022-08-14T07:02:59;5.90;;;4.10;;
54787;SDS011;59598;48.112;16.280;2022-08-14T07:05:50;8.48;;;3.90;;
54787;SDS011;59598;48.112;16.280;2022-08-14T07:08:23;6.30;;;4.10;;
54787;SDS011;59598;48.112;16.280;2022-08-14T07:10:59;9.25;;;4.97;;
54787;SDS011;59598;48.112;16.280;2022-08-14T07:13:33;5.35;;;3.97;;
54787;SDS011;59598;48.112;16.280;2022-08-14T07:16:06;6.15;;;4.18;;
54787;SDS011;59598;48.112;16.280;2022-08-14T07:18:41;5.93;;;4.30;;
54787;SDS011;59598;48.112;16.280;2022-08-14T07:21:17;4.47;;;3.95;;
54787;SDS011;59598;48.112;16.280;2022-08-14T07:23:49;6.97;;;4.70;;
54787;SDS011;59598;48.112;16.280;2022-08-14T07:26:24;7.80;;;4.73;;
54787;SDS011;59598;48.112;16.280;2022-08-14T07:28:56;5.35;;;4.25;;
54787;SDS011;59598;48.112;16.280;2022-08-14T07:31:30;6.82;;;4.13;;
54787;SDS011;59598;48.112;16.280;2022-08-14T07:34:04;5.55;;;4.32;;
54787;SDS011;59598;48.112;16.280;2022-08-14T07:36:37;6.72;;;4.78;;
54787;SDS011;59598;48.112;16.280;2022-08-14T07:39:17;6.57;;;4.40;;
54787;SDS011;59598;48.112;16.280;2022-08-14T07:41:48;5.30;;;4.10;;
54787;SDS011;59598;48.112;16.280;2022-08-14T07:44:19;5.95;;;4.40;;
54787;SDS011;59598;48.112;16.280;2022-08-14T07:46:53;5.20;;;4.00;;
54787;SDS011;59598;48.112;16.280;2022-08-14T07:49:25;6.20;;;4.38;;
54787;SDS011;59598;48.112;16.280;2022-08-14T07:51:56;6.97;;;4.28;;
54787;SDS011;59598;48.112;16.280;2022-08-14T07:54:33;5.05;;;3.85;;
54787;SDS011;59598;48.112;16.280;2022-08-14T07:57:04;8.13;;;3.80;;
54787;SDS011;59598;48.112;16.280;2022-08-14T07:59:39;4.70;;;4.10;;
54787;SDS011;59598;48.112;16.280;2022-08-14T08:02:11;4.30;;;3.70;;
54787;SDS011;59598;48.112;16.280;2022-08-14T08:04:45;4.93;;;3.75;;
54787;SDS011;59598;48.112;16.280;2022-08-14T08:07:24;4.60;;;3.60;;
54787;SDS011;59598;48.112;16.280;2022-08-14T08:10:04;4.82;;;3.95;;
54787;SDS011;59598;48.112;16.280;2022-08-14T08:15:38;4.57;;;3.65;;
54787;SDS011;59598;48.112;16.280;2022-08-14T08:18:16;6.18;;;3.55;;
54787;SDS011;59598;48.112;16.280;2022-08-14T08:20:51;4.50;;;3.67;;
54787;SDS011;59598;48.112;16.280;2022-08-14T08:23:23;5.43;;;4.32;;
54787;SDS011;59598;48.112;16.280;2022-08-14T08:25:58;6.18;;;3.28;;
54787;SDS011;59598;48.112;16.280;2022-08-14T08:28:30;4.93;;;3.67;;
54787;SDS011;59598;48.112;16.280;2022-08-14T08:31:05;4.30;;;3.53;;
54787;SDS011;59598;48.112;16.280;2022-08-14T08:33:42;5.65;;;3.92;;
54787;SDS011;59598;48.112;16.280;2022-08-14T08:36:16;6.93;;;3.95;;
54787;SDS011;59598;48.112;16.280;2022-08-14T08:38:50;6.20;;;3.80;;
54787;SDS011;59598;48.112;16.280;2022-08-14T08:41:40;5.13;;;3.88;;
54787;SDS011;59598;48.112;16.280;2022-08-14T08:44:16;5.10;;;3.78;;
54787;SDS011;59598;48.112;16.280;2022-08-14T08:46:56;4.15;;;3.40;;
54787;SDS011;59598;48.112;16.280;2022-08-14T08:49:39;4.45;;;3.28;;
54787;SDS011;59598;48.112;16.280;2022-08-14T08:52:15;4.13;;;3.30;;
54787;SDS011;59598;48.112;16.280;2022-08-14T08:54:52;5.43;;;3.60;;
54787;SDS011;59598;48.112;16.280;2022-08-14T08:57:24;4.43;;;3.15;;
54787;SDS011;59598;48.112;16.280;2022-08-14T09:00:13;4.85;;;3.58;;
54787;SDS011;59598;48.112;16.280;2022-08-14T09:02:57;7.57;;;4.72;;
54787;SDS011;59598;48.112;16.280;2022-08-14T09:05:34;4.30;;;3.88;;
54787;SDS011;59598;48.112;16.280;2022-08-14T09:08:15;5.13;;;3.63;;
54787;SDS011;59598;48.112;16.280;2022-08-14T09:10:48;5.63;;;4.22;;
54787;SDS011;59598;48.112;16.280;2022-08-14T09:13:24;4.57;;;3.92;;
54787;SDS011;59598;48.112;16.280;2022-08-14T09:16:03;4.45;;;3.60;;
54787;SDS011;59598;48.112;16.280;2022-08-14T09:18:34;4.80;;;3.42;;
54787;SDS011;59598;48.112;16.280;2022-08-14T09:21:11;5.03;;;4.07;;
54787;SDS011;59598;48.112;16.280;2022-08-14T09:23:44;6.20;;;4.00;;
54787;SDS011;59598;48.112;16.280;2022-08-14T09:26:18;5.82;;;3.13;;
54787;SDS011;59598;48.112;16.280;2022-08-14T09:28:51;4.67;;;3.47;;
54787;SDS011;59598;48.112;16.280;2022-08-14T09:31:25;6.40;;;4.40;;
54787;SDS011;59598;48.112;16.280;2022-08-14T09:36:51;5.80;;;3.85;;
54787;SDS011;59598;48.112;16.280;2022-08-14T09:39:45;5.22;;;3.55;;
54787;SDS011;59598;48.112;16.280;2022-08-14T09:45:45;4.45;;;3.60;;
54787;SDS011;59598;48.112;16.280;2022-08-14T09:48:21;5.55;;;4.03;;
54787;SDS011;59598;48.112;16.280;2022-08-14T09:50:54;4.97;;;4.10;;
54787;SDS011;59598;48.112;16.280;2022-08-14T09:56:11;5.75;;;3.97;;
54787;SDS011;59598;48.112;16.280;2022-08-14T09:58:45;9.70;;;3.95;;
54787;SDS011;59598;48.112;16.280;2022-08-14T10:01:18;4.82;;;3.70;;
54787;SDS011;59598;48.112;16.280;2022-08-14T10:03:56;6.57;;;4.43;;
54787;SDS011;59598;48.112;16.280;2022-08-14T10:06:29;7.20;;;4.25;;
54787;SDS011;59598;48.112;16.280;2022-08-14T10:11:34;7.20;;;3.88;;
54787;SDS011;59598;48.112;16.280;2022-08-14T10:16:55;4.85;;;3.50;;
54787;SDS011;59598;48.112;16.280;2022-08-14T10:19:27;5.63;;;3.70;;
54787;SDS011;59598;48.112;16.280;2022-08-14T10:22:05;5.25;;;3.85;;
54787;SDS011;59598;48.112;16.280;2022-08-14T10:24:44;5.75;;;4.38;;
54787;SDS011;59598;48.112;16.280;2022-08-14T10:27:17;4.93;;;3.67;;
54787;SDS011;59598;48.112;16.280;2022-08-14T10:29:58;5.63;;;4.07;;
54787;SDS011;59598;48.112;16.280;2022-08-14T10:32:30;4.78;;;3.63;;
54787;SDS011;59598;48.112;16.280;2022-08-14T10:35:16;5.05;;;3.60;;
54787;SDS011;59598;48.112;16.280;2022-08-14T10:37:49;4.88;;;3.65;;
54787;SDS011;59598;48.112;16.280;2022-08-14T10:40:25;5.45;;;4.20;;
54787;SDS011;59598;48.112;16.280;2022-08-14T10:43:14;5.20;;;3.83;;
54787;SDS011;59598;48.112;16.280;2022-08-14T10:45:55;5.35;;;3.50;;
54787;SDS011;59598;48.112;16.280;2022-08-14T10:48:30;4.88;;;3.67;;
54787;SDS011;59598;48.112;16.280;2022-08-14T10:51:07;4.93;;;3.63;;
54787;SDS011;59598;48.112;16.280;2022-08-14T10:53:41;5.22;;;3.35;;
54787;SDS011;59598;48.112;16.280;2022-08-14T10:56:14;5.18;;;4.00;;
54787;SDS011;59598;48.112;16.280;2022-08-14T10:58:46;4.95;;;3.72;;
54787;SDS011;59598;48.112;16.280;2022-08-14T11:01:28;4.63;;;3.40;;
54787;SDS011;59598;48.112;16.280;2022-08-14T11:04:02;4.93;;;3.72;;
54787;SDS011;59598;48.112;16.280;2022-08-14T11:06:37;5.82;;;3.90;;
54787;SDS011;59598;48.112;16.280;2022-08-14T11:09:12;5.25;;;3.38;;
54787;SDS011;59598;48.112;16.280;2022-08-14T11:11:46;5.88;;;4.03;;
54787;SDS011;59598;48.112;16.280;2022-08-14T11:14:26;6.72;;;4.07;;
54787;SDS011;59598;48.112;16.280;2022-08-14T11:17:01;5.97;;;3.97;;
54787;SDS011;59598;48.112;16.280;2022-08-14T11:19:35;4.38;;;3.40;;
54787;SDS011;59598;48.112;16.280;2022-08-14T11:22:17;5.22;;;3.50;;
54787;SDS011;59598;48.112;16.280;2022-08-14T11:24:59;4.40;;;3.47;;
54787;SDS011;59598;48.112;16.280;2022-08-14T11:27:34;5.03;;;3.65;;
54787;SDS011;59598;48.112;16.280;2022-08-14T11:30:08;5.40;;;3.65;;
54787;SDS011;59598;48.112;16.280;2022-08-14T11:32:43;5.35;;;3.90;;
54787;SDS011;59598;48.112;16.280;2022-08-14T11:35:19;4.13;;;3.72;;
54787;SDS011;59598;48.112;16.280;2022-08-14T11:37:56;4.60;;;3.33;;
54787;SDS011;59598;48.112;16.280;2022-08-14T11:40:32;6.38;;;3.47;;
54787;SDS011;59598;48.112;16.280;2022-08-14T11:43:08;5.88;;;4.00;;
54787;SDS011;59598;48.112;16.280;2022-08-14T11:48:23;4.80;;;3.63;;
54787;SDS011;59598;48.112;16.280;2022-08-14T11:50:58;5.28;;;3.22;;
54787;SDS011;59598;48.112;16.280;2022-08-14T11:53:30;4.68;;;3.88;;
54787;SDS011;59598;48.112;16.280;2022-08-14T11:56:04;7.47;;;3.40;;
54787;SDS011;59598;48.112;16.280;2022-08-14T11:58:39;7.00;;;4.00;;
54787;SDS011;59598;48.112;16.280;2022-08-14T12:01:15;4.95;;;3.80;;
54787;SDS011;59598;48.112;16.280;2022-08-14T12:03:49;3.28;;;2.92;;
54787;SDS011;59598;48.112;16.280;2022-08-14T12:06:22;4.82;;;3.35;;
54787;SDS011;59598;48.112;16.280;2022-08-14T12:11:36;4.05;;;3.08;;
54787;SDS011;59598;48.112;16.280;2022-08-14T12:14:11;4.45;;;3.20;;
54787;SDS011;59598;48.112;16.280;2022-08-14T12:16:47;5.93;;;3.65;;
54787;SDS011;59598;48.112;16.280;2022-08-14T12:19:50;4.00;;;3.40;;
54787;SDS011;59598;48.112;16.280;2022-08-14T12:22:36;4.88;;;3.50;;
54787;SDS011;59598;48.112;16.280;2022-08-14T12:25:18;4.97;;;3.70;;
54787;SDS011;59598;48.112;16.280;2022-08-14T12:27:53;4.43;;;3.65;;
54787;SDS011;59598;48.112;16.280;2022-08-14T12:33:23;3.88;;;3.33;;
54787;SDS011;59598;48.112;16.280;2022-08-14T12:36:01;3.72;;;3.17;;
54787;SDS011;59598;48.112;16.280;2022-08-14T12:38:39;4.53;;;3.47;;
54787;SDS011;59598;48.112;16.280;2022-08-14T12:41:21;3.92;;;3.17;;
54787;SDS011;59598;48.112;16.280;2022-08-14T12:44:05;4.68;;;3.47;;
54787;SDS011;59598;48.112;16.280;2022-08-14T12:46:39;4.20;;;2.95;;
54787;SDS011;59598;48.112;16.280;2022-08-14T12:49:20;4.30;;;3.30;;
54787;SDS011;59598;48.112;16.280;2022-08-14T12:51:55;5.72;;;3.30;;
54787;SDS011;59598;48.112;16.280;2022-08-14T12:54:28;3.17;;;2.85;;
54787;SDS011;59598;48.112;16.280;2022-08-14T12:57:07;4.47;;;3.15;;
54787;SDS011;59598;48.112;16.280;2022-08-14T12:59:43;3.95;;;3.10;;
54787;SDS011;59598;48.112;16.280;2022-08-14T13:02:23;4.85;;;3.13;;
54787;SDS011;59598;48.112;16.280;2022-08-14T13:05:00;6.78;;;3.30;;
54787;SDS011;59598;48.112;16.280;2022-08-14T13:07:35;7.03;;;2.88;;
54787;SDS011;59598;48.112;16.280;2022-08-14T13:10:21;4.40;;;3.35;;
54787;SDS011;59598;48.112;16.280;2022-08-14T13:12:55;4.27;;;3.00;;
54787;SDS011;59598;48.112;16.280;2022-08-14T13:15:28;3.40;;;2.78;;
54787;SDS011;59598;48.112;16.280;2022-08-14T13:18:05;3.55;;;2.95;;
54787;SDS011;59598;48.112;16.280;2022-08-14T13:20:40;2.95;;;2.67;;
54787;SDS011;59598;48.112;16.280;2022-08-14T13:23:15;2.60;;;2.30;;
54787;SDS011;59598;48.112;16.280;2022-08-14T13:25:51;3.67;;;2.65;;
54787;SDS011;59598;48.112;16.280;2022-08-14T13:28:25;2.65;;;2.20;;
54787;SDS011;59598;48.112;16.280;2022-08-14T13:31:00;3.70;;;2.90;;
54787;SDS011;59598;48.112;16.280;2022-08-14T13:33:34;3.47;;;2.78;;
54787;SDS011;59598;48.112;16.280;2022-08-14T13:36:09;3.75;;;2.78;;
54787;SDS011;59598;48.112;16.280;2022-08-14T13:38:43;4.40;;;3.55;;
54787;SDS011;59598;48.112;16.280;2022-08-14T13:41:21;3.15;;;2.65;;
54787;SDS011;59598;48.112;16.280;2022-08-14T13:44:03;4.38;;;2.95;;
54787;SDS011;59598;48.112;16.280;2022-08-14T13:46:34;4.10;;;3.40;;
54787;SDS011;59598;48.112;16.280;2022-08-14T13:49:05;4.40;;;3.42;;
54787;SDS011;59598;48.112;16.280;2022-08-14T13:51:42;3.90;;;3.13;;
54787;SDS011;59598;48.112;16.280;2022-08-14T13:54:17;3.55;;;2.92;;
54787;SDS011;59598;48.112;16.280;2022-08-14T13:56:50;3.40;;;2.67;;
54787;SDS011;59598;48.112;16.280;2022-08-14T13:59:23;4.40;;;3.03;;
54787;SDS011;59598;48.112;16.280;2022-08-14T14:02:08;2.65;;;2.42;;
54787;SDS011;59598;48.112;16.280;2022-08-14T14:04:40;4.53;;;2.95;;
54787;SDS011;59598;48.112;16.280;2022-08-14T14:09:50;4.63;;;2.60;;
54787;SDS011;59598;48.112;16.280;2022-08-14T14:12:27;4.03;;;3.17;;
54787;SDS011;59598;48.112;16.280;2022-08-14T14:15:02;3.65;;;3.20;;
54787;SDS011;59598;48.112;16.280;2022-08-14T14:17:35;3.65;;;2.75;;
54787;SDS011;59598;48.112;16.280;2022-08-14T14:20:10;3.33;;;2.70;;
54787;SDS011;59598;48.112;16.280;2022-08-14T14:22:47;3.10;;;2.63;;
54787;SDS011;59598;48.112;16.280;2022-08-14T14:25:19;3.20;;;2.25;;
54787;SDS011;59598;48.112;16.280;2022-08-14T14:27:52;3.40;;;2.75;;
54787;SDS011;59598;48.112;16.280;2022-08-14T14:30:28;4.57;;;3.20;;
54787;SDS011;59598;48.112;16.280;2022-08-14T14:33:01;7.10;;;3.22;;
54787;SDS011;59598;48.112;16.280;2022-08-14T14:35:36;5.03;;;2.63;;
54787;SDS011;59598;48.112;16.280;2022-08-14T14:38:14;4.32;;;3.13;;
54787;SDS011;59598;48.112;16.280;2022-08-14T14:40:51;3.80;;;3.03;;
54787;SDS011;59598;48.112;16.280;2022-08-14T14:43:30;2.53;;;2.15;;
54787;SDS011;59598;48.112;16.280;2022-08-14T14:46:07;4.32;;;2.80;;
54787;SDS011;59598;48.112;16.280;2022-08-14T14:48:39;5.15;;;2.85;;
54787;SDS011;59598;48.112;16.280;2022-08-14T14:51:15;3.28;;;2.50;;
54787;SDS011;59598;48.112;16.280;2022-08-14T14:53:51;3.30;;;2.72;;
54787;SDS011;59598;48.112;16.280;2022-08-14T14:56:23;3.13;;;2.63;;
54787;SDS011;59598;48.112;16.280;2022-08-14T14:58:58;3.25;;;2.50;;
54787;SDS011;59598;48.112;16.280;2022-08-14T15:01:30;3.55;;;2.95;;
54787;SDS011;59598;48.112;16.280;2022-08-14T15:04:08;3.70;;;2.78;;
54787;SDS011;59598;48.112;16.280;2022-08-14T15:06:45;3.15;;;2.85;;
54787;SDS011;59598;48.112;16.280;2022-08-14T15:09:19;4.00;;;2.58;;
54787;SDS011;59598;48.112;16.280;2022-08-14T15:11:54;3.70;;;3.00;;
54787;SDS011;59598;48.112;16.280;2022-08-14T15:14:32;3.90;;;2.65;;
54787;SDS011;59598;48.112;16.280;2022-08-14T15:17:05;3.60;;;2.97;;
54787;SDS011;59598;48.112;16.280;2022-08-14T15:19:37;3.78;;;3.08;;
54787;SDS011;59598;48.112;16.280;2022-08-14T15:22:08;5.05;;;3.00;;
54787;SDS011;59598;48.112;16.280;2022-08-14T15:24:40;3.22;;;2.75;;
54787;SDS011;59598;48.112;16.280;2022-08-14T15:27:11;6.20;;;3.22;;
54787;SDS011;59598;48.112;16.280;2022-08-14T15:29:45;4.63;;;2.50;;
54787;SDS011;59598;48.112;16.280;2022-08-14T15:32:16;3.50;;;2.97;;
54787;SDS011;59598;48.112;16.280;2022-08-14T15:34:55;5.03;;;3.33;;
54787;SDS011;59598;48.112;16.280;2022-08-14T15:37:32;4.10;;;2.75;;
54787;SDS011;59598;48.112;16.280;2022-08-14T15:40:05;4.07;;;2.72;;
54787;SDS011;59598;48.112;16.280;2022-08-14T15:42:43;2.90;;;2.60;;
54787;SDS011;59598;48.112;16.280;2022-08-14T15:45:17;3.10;;;2.45;;
54787;SDS011;59598;48.112;16.280;2022-08-14T15:47:52;2.90;;;2.60;;
54787;SDS011;59598;48.112;16.280;2022-08-14T15:50:25;2.53;;;2.22;;
54787;SDS011;59598;48.112;16.280;2022-08-14T15:52:58;3.25;;;2.53;;
54787;SDS011;59598;48.112;16.280;2022-08-14T15:55:37;3.10;;;2.40;;
54787;SDS011;59598;48.112;16.280;2022-08-14T15:58:08;2.95;;;2.65;;